Aeroporto :
LOGIN :

Iscrizione | Disclaimer

   EN    FR    IT 

 










Sommario :    VFR   VFR Marginale   IFR   IFR Intensivo   IFR Molto Intensivo
Visibilità : 
Base nubi : 
>= 8 km
>= 3000ft
5 / 8 km
1000 / 3000 ft
1500m / 5 km
500 / 1000 ft
800 / 1500m
200 / 500 ft
< 800m
< 200 ft
Simboli :   Temporali  Nebbia  Neve Forte  Precipitazioni Forti  Vento > 20 kt
SIGMETs :   Varie  Temporali  Ghiacco  Turbolenza  Onda orograficha  Ceneri Vulcaniche






- Altitudine del aeroporto : 2425 ft


ETHA - Altenstadt Army

ULTIMO METAR :
  • 230820Z VRB02KT 9999 FEW015 BKN050 19/15 Q1022 BLU BLU TEMPO WHT

METARs OBSOLETI :
  • 230720Z 22003KT 9999 FEW010 SCT025 BKN045 16/14 Q1023 BLU BLU TEMPO WHT
  • 230620Z 22003KT 9999 FEW010 BKN020 BKN050 15/14 Q1022 WHT BLU TEMPO GRN
  • 230545Z 21001KT 9999 FEW010 BKN020 BKN035 14/14 Q1022 WHT BLU TEMPO GRN
  • 230520Z VRB02KT 9999 FEW010 SCT035 BKN050 14/14 Q1022 BLU BLU TEMPO GRN
  • 230450Z 01005KT 8000 -SHRA FEW005TCU SCT020 BKN035 14/14 Q1022 BLU BLU TEMPO GRN
  • 230420Z 04005KT 5000 -SHRA BR FEW005TCU BKN020 15/15 Q1022 RESHRA WHT BLU TEMPO GRN

TAF TAF ETHA
Valido dal 23 a 08 ore il 23 a 17 ore UTC


230720Z 2308/2317 26005KT 9999 NSW FEW015 BKN040
TEMPO 2308/2310 28007KT 6000 SHRA BKN015 BKN025TCU



MetMap, La meteo Aeronautica in un colpo d'occhio ! - Copyright ORBIFLY Dicembre 2007 - Disclaimer

ORBIFLY MET'MAP TEAM :

Programmazione e sviluppo : Alexandra Zaïnal
Concezione : Baudouin d'Aumeries
Supporto tecnico e logistico : Manuel Goepfert
Aiuto : Marc-Olivier Méhu
Aiuto per la traduzione : Arnaldo La Scala




FONTI E CREDITI :

   NOAA